createdAt,value
2018-10-15T00:00:46.530Z,0
2018-10-15T00:01:47.197Z,0
2018-10-15T00:02:47.867Z,0
2018-10-15T00:03:48.536Z,0
2018-10-15T00:04:49.244Z,0
2018-10-15T00:05:49.875Z,0
2018-10-15T00:06:50.585Z,0
2018-10-15T00:07:51.253Z,0
2018-10-15T00:08:51.922Z,0
2018-10-15T00:09:52.591Z,0
2018-10-15T00:10:53.260Z,0
2018-10-15T00:11:53.928Z,0
2018-10-15T00:12:54.598Z,0
2018-10-15T00:13:55.266Z,0
2018-10-15T00:14:55.935Z,0
2018-10-15T00:15:56.605Z,0
2018-10-15T00:16:57.273Z,0
2018-10-15T00:17:57.941Z,0
2018-10-15T00:18:58.613Z,0
2018-10-15T00:19:59.282Z,0
2018-10-15T00:20:59.951Z,0
2018-10-15T00:22:00.619Z,0
2018-10-15T00:23:01.288Z,0
2018-10-15T00:24:01.957Z,0
2018-10-15T00:25:02.626Z,0
2018-10-15T00:26:03.295Z,0
2018-10-15T00:27:03.963Z,0
2018-10-15T00:28:04.633Z,0
2018-10-15T00:29:05.301Z,0
2018-10-15T00:30:05.970Z,0
2018-10-15T00:31:06.639Z,0
2018-10-15T00:32:07.309Z,0
2018-10-15T00:33:07.982Z,0
2018-10-15T00:34:08.648Z,0
2018-10-15T00:35:09.315Z,0
2018-10-15T00:36:09.985Z,0
2018-10-15T00:37:10.653Z,0
2018-10-15T00:38:11.330Z,0
2018-10-15T00:39:12.035Z,0
2018-10-15T00:40:12.705Z,0
2018-10-15T00:41:13.373Z,0
2018-10-15T00:42:14.040Z,0
2018-10-15T00:43:14.713Z,0
2018-10-15T00:44:15.380Z,0
2018-10-15T00:45:16.051Z,0
2018-10-15T00:46:16.715Z,0
2018-10-15T00:47:17.383Z,0
2018-10-15T00:48:18.050Z,0
2018-10-15T00:49:18.721Z,0
2018-10-15T00:50:19.432Z,0
2018-10-15T00:51:20.131Z,0
2018-10-15T00:52:20.770Z,0
2018-10-15T00:53:21.439Z,0
2018-10-15T00:54:22.107Z,0
2018-10-15T00:55:22.777Z,0
2018-10-15T00:56:23.448Z,0
2018-10-15T00:57:24.116Z,0
2018-10-15T00:58:24.784Z,0
2018-10-15T00:59:25.456Z,0
2018-10-15T01:00:26.121Z,0
2018-10-15T01:01:26.791Z,0
2018-10-15T01:02:27.463Z,0
2018-10-15T01:03:28.129Z,0
2018-10-15T01:04:28.797Z,0
2018-10-15T01:05:29.465Z,0
2018-10-15T01:06:30.132Z,0
2018-10-15T01:07:30.800Z,0
2018-10-15T01:08:31.470Z,0
2018-10-15T01:09:32.140Z,0
2018-10-15T01:10:32.806Z,0
2018-10-15T01:11:33.475Z,0
2018-10-15T01:12:34.143Z,0
2018-10-15T01:13:34.819Z,0
2018-10-15T01:14:35.481Z,0
2018-10-15T01:15:36.150Z,0
2018-10-15T01:16:36.820Z,0
2018-10-15T01:17:37.507Z,0
2018-10-15T01:18:38.199Z,0
2018-10-15T01:19:38.867Z,0
2018-10-15T01:20:39.539Z,0
2018-10-15T01:21:40.208Z,0
2018-10-15T01:22:40.917Z,0
2018-10-15T01:23:41.586Z,0
2018-10-15T01:24:42.253Z,0
2018-10-15T01:25:42.922Z,0
2018-10-15T01:26:43.592Z,0
2018-10-15T01:27:44.301Z,0
2018-10-15T01:28:44.969Z,0
2018-10-15T01:29:45.636Z,0
2018-10-15T01:30:46.304Z,0
2018-10-15T01:31:46.974Z,0
2018-10-15T01:32:47.687Z,0
2018-10-15T01:33:48.354Z,0
2018-10-15T01:34:49.020Z,0
2018-10-15T01:35:49.689Z,0
2018-10-15T01:36:50.358Z,0
2018-10-15T01:37:51.031Z,0
2018-10-15T01:38:51.693Z,0
2018-10-15T01:39:52.363Z,0
2018-10-15T01:40:53.032Z,0
2018-10-15T01:41:53.700Z,0
2018-10-15T01:42:54.368Z,0
2018-10-15T01:43:55.036Z,0
2018-10-15T01:44:55.703Z,0
2018-10-15T01:45:56.372Z,0
2018-10-15T01:46:57.042Z,0
2018-10-15T01:47:57.710Z,0
2018-10-15T01:48:58.379Z,0
2018-10-15T01:49:59.046Z,0
2018-10-15T01:50:59.712Z,0
2018-10-15T01:52:00.382Z,0
2018-10-15T01:53:01.051Z,0
2018-10-15T01:54:01.718Z,0
2018-10-15T01:55:02.455Z,0
2018-10-15T01:56:03.091Z,0
2018-10-15T01:57:03.757Z,0
2018-10-15T01:58:04.425Z,0
2018-10-15T01:59:05.094Z,0
2018-10-15T02:00:05.764Z,0
2018-10-15T02:01:06.432Z,0
2018-10-15T02:02:07.099Z,0
2018-10-15T02:03:07.769Z,0
2018-10-15T02:04:08.436Z,0
2018-10-15T02:05:09.107Z,0
2018-10-15T02:06:09.777Z,0
2018-10-15T02:07:10.442Z,0
2018-10-15T02:08:11.111Z,0
2018-10-15T02:09:11.780Z,0
2018-10-15T02:10:12.450Z,0
2018-10-15T02:11:13.117Z,0
2018-10-15T02:12:13.827Z,0
2018-10-15T02:13:14.496Z,0
2018-10-15T02:14:15.164Z,0
2018-10-15T02:15:15.833Z,0
2018-10-15T02:16:16.530Z,0
2018-10-15T02:17:17.168Z,0
2018-10-15T02:18:17.836Z,0
2018-10-15T02:19:18.506Z,0
2018-10-15T02:20:19.171Z,0
2018-10-15T02:21:19.841Z,0
2018-10-15T02:22:20.508Z,0
2018-10-15T02:23:21.174Z,0
2018-10-15T02:24:21.842Z,0
2018-10-15T02:25:22.510Z,0
2018-10-15T02:26:23.178Z,0
2018-10-15T02:27:23.847Z,0
2018-10-15T02:28:24.516Z,0
2018-10-15T02:29:25.184Z,0
2018-10-15T02:30:25.851Z,0
2018-10-15T02:31:26.521Z,0
2018-10-15T02:32:27.189Z,0
2018-10-15T02:33:27.854Z,0
2018-10-15T02:34:28.523Z,0
2018-10-15T02:35:29.190Z,0
2018-10-15T02:36:29.856Z,0
2018-10-15T02:37:30.525Z,0
2018-10-15T02:38:31.196Z,0
2018-10-15T02:39:31.907Z,0
2018-10-15T02:40:32.575Z,0
2018-10-15T02:41:33.243Z,0
2018-10-15T02:42:33.911Z,0
2018-10-15T02:43:34.582Z,0
2018-10-15T02:44:35.250Z,0
2018-10-15T02:45:35.917Z,0
2018-10-15T02:46:36.586Z,0
2018-10-15T02:47:37.255Z,0
2018-10-15T02:48:37.923Z,0
2018-10-15T02:49:38.592Z,0
2018-10-15T02:50:39.260Z,0
2018-10-15T02:51:39.927Z,0
2018-10-15T02:52:40.595Z,0
2018-10-15T02:53:41.264Z,0
2018-10-15T02:54:41.933Z,0
2018-10-15T02:55:42.603Z,0
2018-10-15T02:56:43.272Z,0
2018-10-15T02:57:43.938Z,0
2018-10-15T02:58:44.607Z,0
2018-10-15T02:59:45.276Z,0
2018-10-15T03:00:45.945Z,0
2018-10-15T03:01:46.612Z,0
2018-10-15T03:02:47.282Z,0
2018-10-15T03:03:47.951Z,0
2018-10-15T03:04:48.620Z,0
2018-10-15T03:05:49.286Z,0
2018-10-15T03:06:49.957Z,0
2018-10-15T03:07:50.626Z,0
2018-10-15T03:08:51.294Z,0
2018-10-15T03:09:51.998Z,0
2018-10-15T03:10:52.676Z,0
2018-10-15T03:11:53.342Z,0
2018-10-15T03:12:54.021Z,0
2018-10-15T03:13:54.726Z,0
2018-10-15T03:14:55.397Z,0
2018-10-15T03:15:56.065Z,0
2018-10-15T03:16:56.734Z,0
2018-10-15T03:17:57.404Z,0
2018-10-15T03:18:58.073Z,0
2018-10-15T03:19:58.824Z,0
2018-10-15T03:20:59.408Z,0
2018-10-15T03:22:00.078Z,0
2018-10-15T03:23:00.745Z,0
2018-10-15T03:24:01.423Z,0
2018-10-15T03:25:02.085Z,0
2018-10-15T03:26:02.756Z,0
2018-10-15T03:27:03.424Z,0
2018-10-15T03:28:04.092Z,0
2018-10-15T03:29:04.772Z,0
2018-10-15T03:30:05.484Z,0
2018-10-15T03:31:06.142Z,0
2018-10-15T03:32:06.812Z,0
2018-10-15T03:33:07.524Z,0
2018-10-15T03:34:08.194Z,0
2018-10-15T03:35:08.862Z,0
2018-10-15T03:36:09.530Z,0
2018-10-15T03:37:10.202Z,0
2018-10-15T03:38:10.869Z,0
2018-10-15T03:39:11.538Z,0
2018-10-15T03:40:12.209Z,0
2018-10-15T03:41:12.877Z,0
2018-10-15T03:42:13.549Z,0
2018-10-15T03:43:14.213Z,0
2018-10-15T03:44:14.924Z,0
2018-10-15T03:45:15.595Z,0
2018-10-15T03:46:16.264Z,0
2018-10-15T03:47:16.933Z,0
2018-10-15T03:48:17.602Z,0
2018-10-15T03:49:18.270Z,0
2018-10-15T03:50:18.944Z,0
2018-10-15T03:51:19.608Z,0
2018-10-15T03:52:20.280Z,0
2018-10-15T03:53:20.948Z,0
2018-10-15T03:54:21.613Z,0
2018-10-15T03:55:22.281Z,0
2018-10-15T03:56:22.952Z,0
2018-10-15T03:57:23.623Z,0
2018-10-15T03:58:24.290Z,0
2018-10-15T03:59:24.959Z,0
2018-10-15T04:00:25.626Z,0
2018-10-15T04:01:26.298Z,0
2018-10-15T04:02:27.023Z,0
2018-10-15T04:03:27.636Z,0
2018-10-15T04:04:28.319Z,0
2018-10-15T04:05:28.974Z,0
2018-10-15T04:06:29.641Z,0
2018-10-15T04:07:30.312Z,0
2018-10-15T04:08:31.011Z,0
2018-10-15T04:09:31.648Z,0
2018-10-15T04:10:32.314Z,0
2018-10-15T04:11:32.982Z,0
2018-10-15T04:12:33.651Z,0
2018-10-15T04:13:34.350Z,0
2018-10-15T04:14:35.090Z,0
2018-10-15T04:15:35.686Z,0
2018-10-15T04:16:36.367Z,0
2018-10-15T04:17:37.034Z,0
2018-10-15T04:18:37.706Z,0
2018-10-15T04:19:38.372Z,0
2018-10-15T04:20:39.040Z,0
2018-10-15T04:21:39.710Z,0
2018-10-15T04:22:40.377Z,0
2018-10-15T04:23:41.045Z,0
2018-10-15T04:24:41.715Z,0
2018-10-15T04:25:42.383Z,0
2018-10-15T04:26:43.052Z,0
2018-10-15T04:27:43.722Z,0
2018-10-15T04:28:44.389Z,0
2018-10-15T04:29:45.062Z,0
2018-10-15T04:30:45.729Z,0
2018-10-15T04:31:46.396Z,0
2018-10-15T04:32:47.065Z,0
2018-10-15T04:33:47.736Z,0
2018-10-15T04:34:48.400Z,0
2018-10-15T04:35:49.070Z,0
2018-10-15T04:36:49.737Z,0
2018-10-15T04:37:50.456Z,0
2018-10-15T04:38:51.072Z,0
2018-10-15T04:39:51.739Z,0
2018-10-15T04:40:52.406Z,0
2018-10-15T04:41:53.075Z,0
2018-10-15T04:42:53.743Z,0
2018-10-15T04:43:54.411Z,0
2018-10-15T04:44:55.079Z,0
2018-10-15T04:45:55.748Z,0
2018-10-15T04:46:56.413Z,0
2018-10-15T04:47:57.082Z,0
2018-10-15T04:48:57.785Z,0
2018-10-15T04:49:58.447Z,0
2018-10-15T04:50:59.089Z,0
2018-10-15T04:51:59.755Z,0
2018-10-15T04:53:00.423Z,0
2018-10-15T04:54:01.092Z,0
2018-10-15T04:55:01.831Z,0
2018-10-15T04:56:02.427Z,0
2018-10-15T04:57:03.144Z,0
2018-10-15T04:58:03.810Z,0
2018-10-15T04:59:04.480Z,0
2018-10-15T05:00:05.160Z,0
2018-10-15T05:01:05.816Z,0
2018-10-15T05:02:06.526Z,0
2018-10-15T05:03:07.193Z,0
2018-10-15T05:04:07.861Z,0
2018-10-15T05:05:08.529Z,0
2018-10-15T05:06:09.232Z,0
2018-10-15T05:07:09.864Z,0
2018-10-15T05:08:10.531Z,0
2018-10-15T05:09:11.198Z,0
2018-10-15T05:10:11.865Z,0
2018-10-15T05:11:12.534Z,0
2018-10-15T05:12:13.241Z,0
2018-10-15T05:13:13.870Z,0
2018-10-15T05:14:14.543Z,0
2018-10-15T05:15:15.247Z,0
2018-10-15T05:16:15.918Z,0
2018-10-15T05:17:16.589Z,0
2018-10-15T05:18:17.344Z,0
2018-10-15T05:19:17.963Z,0
2018-10-15T05:20:18.633Z,0
2018-10-15T05:21:19.467Z,0
2018-10-15T05:22:20.007Z,0
2018-10-15T05:23:20.710Z,0
2018-10-15T05:24:21.454Z,0
2018-10-15T05:25:22.107Z,0
2018-10-15T05:26:22.777Z,0
2018-10-15T05:27:23.447Z,0
2018-10-15T05:28:24.116Z,0
2018-10-15T05:29:24.785Z,0
2018-10-15T05:30:25.589Z,0
2018-10-15T05:31:26.123Z,0
2018-10-15T05:32:26.793Z,0
2018-10-15T05:33:27.464Z,0
2018-10-15T05:34:28.133Z,0
2018-10-15T05:35:28.804Z,0
2018-10-15T05:36:29.491Z,0
2018-10-15T05:37:30.144Z,0
2018-10-15T05:38:30.812Z,0
2018-10-15T05:39:31.482Z,0
2018-10-15T05:40:32.150Z,0
2018-10-15T05:41:32.820Z,5
2018-10-15T05:42:33.490Z,5
2018-10-15T05:43:34.159Z,5
2018-10-15T05:44:34.873Z,5
2018-10-15T05:45:35.542Z,5
2018-10-15T05:46:36.308Z,5
2018-10-15T05:47:36.882Z,5
2018-10-15T05:48:37.551Z,5
2018-10-15T05:49:38.222Z,5
2018-10-15T05:50:38.892Z,11
2018-10-15T05:51:39.564Z,11
2018-10-15T05:52:40.233Z,11
2018-10-15T05:53:40.904Z,11
2018-10-15T05:54:41.576Z,11
2018-10-15T05:55:42.244Z,11
2018-10-15T05:56:42.916Z,11
2018-10-15T05:57:43.592Z,11
2018-10-15T05:58:44.303Z,11
2018-10-15T05:59:44.975Z,16
2018-10-15T06:00:45.649Z,16
2018-10-15T06:01:46.320Z,16
2018-10-15T06:02:46.989Z,16
2018-10-15T06:03:47.661Z,16
2018-10-15T06:04:48.333Z,16
2018-10-15T06:05:49.048Z,16
2018-10-15T06:06:49.719Z,16
2018-10-15T06:07:50.392Z,22
2018-10-15T06:08:51.064Z,22
2018-10-15T06:09:51.736Z,22
2018-10-15T06:10:52.404Z,22
2018-10-15T06:11:53.079Z,22
2018-10-15T06:12:53.761Z,22
2018-10-15T06:13:54.465Z,22
2018-10-15T06:14:55.138Z,22
2018-10-15T06:15:55.814Z,28
2018-10-15T06:16:56.487Z,28
2018-10-15T06:17:57.163Z,28
2018-10-15T06:18:57.835Z,28
2018-10-15T06:19:58.524Z,28
2018-10-15T06:20:59.222Z,28
2018-10-15T06:21:59.894Z,28
2018-10-15T06:23:00.589Z,28
2018-10-15T06:24:01.343Z,28
2018-10-15T06:25:01.959Z,33
2018-10-15T06:26:02.644Z,33
2018-10-15T06:27:03.307Z,33
2018-10-15T06:28:04.044Z,33
2018-10-15T06:29:04.654Z,33
2018-10-15T06:30:05.358Z,33
2018-10-15T06:31:06.002Z,33
2018-10-15T06:32:06.678Z,33
2018-10-15T06:33:07.349Z,33
2018-10-15T06:34:08.024Z,39
2018-10-15T06:35:08.696Z,39
2018-10-15T06:36:09.391Z,39
2018-10-15T06:37:10.099Z,39
2018-10-15T06:38:10.817Z,39
2018-10-15T06:39:11.517Z,39
2018-10-15T06:40:12.144Z,39
2018-10-15T06:41:12.834Z,39
2018-10-15T06:42:13.550Z,39
2018-10-15T06:43:14.165Z,39
2018-10-15T06:44:14.842Z,45
2018-10-15T06:45:15.598Z,45
2018-10-15T06:46:16.273Z,45
2018-10-15T06:47:16.979Z,45
2018-10-15T06:48:17.567Z,45
2018-10-15T06:49:18.252Z,45
2018-10-15T06:50:18.917Z,45
2018-10-15T06:51:19.622Z,45
2018-10-15T06:52:20.299Z,45
2018-10-15T06:53:21.082Z,45
2018-10-15T06:54:21.695Z,45
2018-10-15T06:55:22.512Z,45
2018-10-15T06:56:23.045Z,50
2018-10-15T06:57:23.720Z,50
2018-10-15T06:58:24.391Z,50
2018-10-15T06:59:25.149Z,50
2018-10-15T07:00:25.775Z,50
2018-10-15T07:01:26.449Z,50
2018-10-15T07:02:27.121Z,50
2018-10-15T07:03:27.837Z,50
2018-10-15T07:04:28.508Z,50
2018-10-15T07:05:29.181Z,50
2018-10-15T07:06:29.853Z,50
2018-10-15T07:07:30.660Z,50
2018-10-15T07:08:31.200Z,56
2018-10-15T07:09:31.874Z,56
2018-10-15T07:10:32.548Z,56
2018-10-15T07:11:33.220Z,56
2018-10-15T07:12:33.894Z,56
2018-10-15T07:13:34.618Z,56
2018-10-15T07:14:35.339Z,56
2018-10-15T07:15:35.998Z,56
2018-10-15T07:16:36.672Z,56
2018-10-15T07:17:37.344Z,56
2018-10-15T07:18:38.016Z,56
2018-10-15T07:19:38.688Z,56
2018-10-15T07:20:39.421Z,56
2018-10-15T07:21:40.037Z,56
2018-10-15T07:22:40.749Z,61
2018-10-15T07:23:41.423Z,61
2018-10-15T07:24:42.095Z,61
2018-10-15T07:25:42.769Z,61
2018-10-15T07:26:43.441Z,61
2018-10-15T07:27:44.116Z,61
2018-10-15T07:28:44.787Z,61
2018-10-15T07:29:45.461Z,61
2018-10-15T07:30:46.132Z,61
2018-10-15T07:31:46.808Z,61
2018-10-15T07:32:47.525Z,61
2018-10-15T07:33:48.197Z,61
2018-10-15T07:34:48.871Z,61
2018-10-15T07:35:49.543Z,61
2018-10-15T07:36:50.216Z,61
2018-10-15T07:37:50.890Z,67
2018-10-15T07:38:51.562Z,67
2018-10-15T07:39:52.234Z,67
2018-10-15T07:40:52.908Z,67
2018-10-15T07:41:53.580Z,67
2018-10-15T07:42:54.254Z,67
2018-10-15T07:43:54.934Z,67
2018-10-15T07:44:55.601Z,67
2018-10-15T07:45:56.279Z,67
2018-10-15T07:46:56.948Z,67
2018-10-15T07:47:57.622Z,67
2018-10-15T07:48:58.293Z,67
2018-10-15T07:49:58.969Z,67
2018-10-15T07:50:59.641Z,67
2018-10-15T07:52:00.329Z,67
2018-10-15T07:53:01.150Z,73
2018-10-15T07:54:01.800Z,73
2018-10-15T07:55:02.428Z,73
2018-10-15T07:56:03.160Z,73
2018-10-15T07:57:03.775Z,73
2018-10-15T07:58:04.494Z,73
2018-10-15T07:59:05.139Z,73
2018-10-15T08:00:05.838Z,73
2018-10-15T08:01:06.550Z,73
2018-10-15T08:02:07.229Z,73
2018-10-15T08:03:07.933Z,73
2018-10-15T08:04:08.668Z,73
2018-10-15T08:05:09.456Z,78
2018-10-15T08:06:10.027Z,78
2018-10-15T08:07:10.704Z,78
2018-10-15T08:08:11.423Z,78
2018-10-15T08:09:12.084Z,78
2018-10-15T08:10:12.843Z,84
2018-10-15T08:11:13.553Z,84
2018-10-15T08:12:14.146Z,84
2018-10-15T08:13:14.819Z,84
2018-10-15T08:14:15.528Z,84
2018-10-15T08:15:16.233Z,84
2018-10-15T08:16:16.954Z,84
2018-10-15T08:17:17.626Z,84
2018-10-15T08:18:18.342Z,84
2018-10-15T08:19:19.014Z,84
2018-10-15T08:20:19.751Z,84
2018-10-15T08:21:20.362Z,90
2018-10-15T08:22:21.107Z,90
2018-10-15T08:23:21.710Z,90
2018-10-15T08:24:22.385Z,90
2018-10-15T08:25:23.103Z,90
2018-10-15T08:26:23.768Z,90
2018-10-15T08:27:24.441Z,90
2018-10-15T08:28:25.126Z,90
2018-10-15T08:29:25.849Z,90
2018-10-15T08:30:26.500Z,95
2018-10-15T08:31:27.172Z,95
2018-10-15T08:32:27.845Z,95
2018-10-15T08:33:28.564Z,95
2018-10-15T08:34:29.258Z,95
2018-10-15T08:35:29.972Z,95
2018-10-15T08:36:30.673Z,95
2018-10-15T08:37:31.350Z,101
2018-10-15T08:38:32.025Z,101
2018-10-15T08:39:32.701Z,101
2018-10-15T08:40:33.378Z,101
2018-10-15T08:41:34.058Z,101
2018-10-15T08:42:34.771Z,101
2018-10-15T08:43:35.449Z,101
2018-10-15T08:44:36.124Z,106
2018-10-15T08:45:36.801Z,106
2018-10-15T08:46:37.475Z,112
2018-10-15T08:47:38.150Z,106
2018-10-15T08:48:38.827Z,106
2018-10-15T08:49:39.514Z,106
2018-10-15T08:50:40.352Z,106
2018-10-15T08:51:40.936Z,112
2018-10-15T08:52:41.668Z,106
2018-10-15T08:53:42.366Z,112
2018-10-15T08:54:43.044Z,112
2018-10-15T08:55:43.767Z,112
2018-10-15T08:56:44.403Z,112
2018-10-15T08:57:45.070Z,112
2018-10-15T08:58:45.747Z,112
2018-10-15T08:59:46.428Z,112
2018-10-15T09:00:47.101Z,112
2018-10-15T09:01:47.833Z,112
2018-10-15T09:02:48.543Z,112
2018-10-15T09:03:49.224Z,112
2018-10-15T09:04:49.860Z,118
2018-10-15T09:05:50.519Z,112
2018-10-15T09:06:51.252Z,112
2018-10-15T09:07:52.284Z,112
2018-10-15T09:08:52.658Z,112
2018-10-15T09:09:53.362Z,112
2018-10-15T09:10:53.941Z,112
2018-10-15T09:11:54.614Z,112
2018-10-15T09:12:55.366Z,112
2018-10-15T09:13:55.969Z,112
2018-10-15T09:14:56.647Z,112
2018-10-15T09:15:57.392Z,112
2018-10-15T09:16:58.003Z,112
2018-10-15T09:17:58.774Z,112
2018-10-15T09:18:59.457Z,112
2018-10-15T09:20:00.138Z,112
2018-10-15T09:21:00.804Z,112
2018-10-15T09:22:01.490Z,112
2018-10-15T09:23:02.107Z,112
2018-10-15T09:24:02.862Z,112
2018-10-15T09:25:03.539Z,112
2018-10-15T09:26:04.232Z,112
2018-10-15T09:27:04.831Z,112
2018-10-15T09:28:05.531Z,112
2018-10-15T09:29:06.207Z,118
2018-10-15T09:30:06.954Z,112
2018-10-15T09:31:07.726Z,106
2018-10-15T09:32:08.241Z,106
2018-10-15T09:33:08.916Z,106
2018-10-15T09:34:09.597Z,106
2018-10-15T09:35:10.275Z,106
2018-10-15T09:36:10.950Z,106
2018-10-15T09:37:11.628Z,106
2018-10-15T09:38:12.307Z,106
2018-10-15T09:39:13.067Z,106
2018-10-15T09:40:13.663Z,106
2018-10-15T09:41:14.368Z,106
2018-10-15T09:42:15.061Z,106
2018-10-15T09:43:15.738Z,106
2018-10-15T09:44:16.419Z,106
2018-10-15T09:45:17.136Z,106
2018-10-15T09:46:17.814Z,106
2018-10-15T09:47:18.490Z,106
2018-10-15T09:48:19.168Z,106
2018-10-15T09:49:19.855Z,106
2018-10-15T09:50:20.636Z,106
2018-10-15T09:51:21.322Z,106
2018-10-15T09:52:22.005Z,106
2018-10-15T09:53:22.746Z,106
2018-10-15T09:54:23.374Z,112
2018-10-15T09:55:24.055Z,112
2018-10-15T09:56:24.790Z,106
2018-10-15T09:57:25.470Z,106
2018-10-15T09:58:26.153Z,106
2018-10-15T09:59:26.841Z,106
2018-10-15T10:00:27.624Z,106
2018-10-15T10:01:28.355Z,106
2018-10-15T10:02:29.090Z,106
2018-10-15T10:03:29.824Z,106
2018-10-15T10:04:30.508Z,106
2018-10-15T10:05:31.191Z,106
2018-10-15T10:06:31.876Z,106
2018-10-15T10:07:32.646Z,106
2018-10-15T10:08:33.295Z,106
2018-10-15T10:09:33.979Z,106
2018-10-15T10:10:34.714Z,106
2018-10-15T10:11:35.400Z,106
2018-10-15T10:12:36.083Z,106
2018-10-15T10:13:36.819Z,106
2018-10-15T10:14:37.562Z,106
2018-10-15T10:15:38.282Z,106
2018-10-15T10:16:38.963Z,106
2018-10-15T10:17:39.805Z,106
2018-10-15T10:18:40.338Z,106
2018-10-15T10:19:41.017Z,106
2018-10-15T10:20:41.758Z,106
2018-10-15T10:21:42.539Z,106
2018-10-15T10:22:43.213Z,106
2018-10-15T10:23:43.889Z,106
2018-10-15T10:24:44.587Z,106
2018-10-15T10:25:45.308Z,106
2018-10-15T10:26:46.077Z,106
2018-10-15T10:27:46.722Z,106
2018-10-15T10:28:47.568Z,106
2018-10-15T10:29:48.097Z,106
2018-10-15T10:30:48.885Z,106
2018-10-15T10:31:49.641Z,106
2018-10-15T10:32:50.337Z,106
2018-10-15T10:33:51.105Z,106
2018-10-15T10:34:51.849Z,106
2018-10-15T10:35:52.617Z,106
2018-10-15T10:36:53.326Z,106
2018-10-15T10:37:53.977Z,106
2018-10-15T10:38:54.760Z,106
2018-10-15T10:39:55.524Z,106
2018-10-15T10:40:56.174Z,106
2018-10-15T10:41:56.871Z,106
2018-10-15T10:42:57.642Z,106
2018-10-15T10:43:58.330Z,106
2018-10-15T10:44:59.128Z,106
2018-10-15T10:45:59.756Z,106
2018-10-15T10:47:00.512Z,106
2018-10-15T10:48:01.159Z,101
2018-10-15T10:49:01.867Z,106
2018-10-15T10:50:02.577Z,101
2018-10-15T10:51:03.317Z,101
2018-10-15T10:52:03.998Z,101
2018-10-15T10:53:04.687Z,101
2018-10-15T10:54:05.368Z,101
2018-10-15T10:55:06.102Z,101
2018-10-15T10:56:06.787Z,101
2018-10-15T10:57:07.471Z,101
2018-10-15T10:58:08.155Z,101
2018-10-15T10:59:08.888Z,101
2018-10-15T11:00:09.573Z,101
2018-10-15T11:01:10.256Z,101
2018-10-15T11:02:11.018Z,101
2018-10-15T11:03:11.627Z,101
2018-10-15T11:04:12.363Z,101
2018-10-15T11:05:13.048Z,101
2018-10-15T11:06:13.734Z,101
2018-10-15T11:07:14.469Z,101
2018-10-15T11:08:15.234Z,101
2018-10-15T11:09:15.841Z,101
2018-10-15T11:10:16.527Z,101
2018-10-15T11:11:17.212Z,101
2018-10-15T11:12:17.949Z,101
2018-10-15T11:13:18.638Z,101
2018-10-15T11:14:19.318Z,101
2018-10-15T11:15:20.002Z,101
2018-10-15T11:16:20.687Z,101
2018-10-15T11:17:21.422Z,101
2018-10-15T11:18:22.121Z,101
2018-10-15T11:19:22.799Z,101
2018-10-15T11:20:23.544Z,101
2018-10-15T11:21:24.258Z,101
2018-10-15T11:22:25.025Z,101
2018-10-15T11:23:25.678Z,101
2018-10-15T11:24:26.363Z,101
2018-10-15T11:25:27.047Z,101
2018-10-15T11:26:27.731Z,101
2018-10-15T11:27:28.468Z,101
2018-10-15T11:28:29.152Z,101
2018-10-15T11:29:29.855Z,101
2018-10-15T11:30:30.607Z,101
2018-10-15T11:31:31.308Z,101
2018-10-15T11:32:31.992Z,101
2018-10-15T11:33:32.728Z,101
2018-10-15T11:34:33.428Z,101
2018-10-15T11:35:34.141Z,101
2018-10-15T11:36:34.825Z,101
2018-10-15T11:37:35.568Z,101
2018-10-15T11:38:36.298Z,101
2018-10-15T11:39:36.980Z,101
2018-10-15T11:40:37.664Z,101
2018-10-15T11:41:38.352Z,101
2018-10-15T11:42:39.087Z,101
2018-10-15T11:43:39.916Z,101
2018-10-15T11:44:40.459Z,101
2018-10-15T11:45:41.198Z,101
2018-10-15T11:46:42.076Z,101
2018-10-15T11:47:42.666Z,101
2018-10-15T11:48:43.351Z,101
2018-10-15T11:49:44.090Z,101
2018-10-15T11:50:44.810Z,112
2018-10-15T11:51:45.496Z,106
2018-10-15T11:52:46.182Z,106
2018-10-15T11:53:46.970Z,106
2018-10-15T11:54:47.605Z,106
2018-10-15T11:55:48.338Z,106
2018-10-15T11:56:49.024Z,106
2018-10-15T11:57:49.710Z,106
2018-10-15T11:58:50.482Z,106
2018-10-15T11:59:51.135Z,106
2018-10-15T12:00:51.819Z,101
2018-10-15T12:01:52.505Z,101
2018-10-15T12:02:53.241Z,101
2018-10-15T12:03:53.975Z,101
2018-10-15T12:04:54.660Z,101
2018-10-15T12:05:55.347Z,101
2018-10-15T12:06:56.086Z,101
2018-10-15T12:07:56.770Z,101
2018-10-15T12:08:57.456Z,101
2018-10-15T12:09:58.144Z,101
2018-10-15T12:10:58.947Z,101
2018-10-15T12:11:59.566Z,101
2018-10-15T12:13:00.252Z,101
2018-10-15T12:14:00.994Z,101
2018-10-15T12:15:01.677Z,101
2018-10-15T12:16:02.362Z,101
2018-10-15T12:17:03.048Z,101
2018-10-15T12:18:03.735Z,101
2018-10-15T12:19:04.469Z,101
2018-10-15T12:20:05.157Z,106
2018-10-15T12:21:05.843Z,106
2018-10-15T12:22:06.558Z,106
2018-10-15T12:23:07.313Z,112
2018-10-15T12:24:08.000Z,112
2018-10-15T12:25:08.686Z,106
2018-10-15T12:26:09.423Z,106
2018-10-15T12:27:10.206Z,118
2018-10-15T12:28:10.892Z,146
2018-10-15T12:29:11.578Z,196
2018-10-15T12:30:12.267Z,196
2018-10-15T12:31:13.048Z,151
2018-10-15T12:32:13.731Z,129
2018-10-15T12:33:14.417Z,106
2018-10-15T12:34:15.105Z,101
2018-10-15T12:35:15.791Z,101
2018-10-15T12:36:16.528Z,101
2018-10-15T12:37:17.216Z,101
2018-10-15T12:38:17.903Z,101
2018-10-15T12:39:18.639Z,101
2018-10-15T12:40:19.327Z,101
2018-10-15T12:41:20.083Z,101
2018-10-15T12:42:20.701Z,101
2018-10-15T12:43:21.387Z,101
2018-10-15T12:44:22.123Z,101
2018-10-15T12:45:22.809Z,101
2018-10-15T12:46:23.499Z,101
2018-10-15T12:47:24.238Z,101
2018-10-15T12:48:25.016Z,101
2018-10-15T12:49:25.702Z,101
2018-10-15T12:50:26.439Z,101
2018-10-15T12:51:27.125Z,101
2018-10-15T12:52:27.811Z,101
2018-10-15T12:53:28.531Z,101
2018-10-15T12:54:29.235Z,101
2018-10-15T12:55:29.926Z,101
2018-10-15T12:56:30.658Z,101
2018-10-15T12:57:31.344Z,101
2018-10-15T12:58:32.078Z,101
2018-10-15T12:59:32.763Z,101
2018-10-15T13:00:33.452Z,101
2018-10-15T13:01:34.138Z,101
2018-10-15T13:02:34.875Z,101
2018-10-15T13:03:35.561Z,101
2018-10-15T13:04:36.296Z,101
2018-10-15T13:05:36.982Z,101
2018-10-15T13:06:37.721Z,101
2018-10-15T13:07:38.405Z,101
2018-10-15T13:08:39.189Z,101
2018-10-15T13:09:39.875Z,101
2018-10-15T13:10:40.610Z,101
2018-10-15T13:11:41.295Z,101
2018-10-15T13:12:41.982Z,101
2018-10-15T13:13:42.729Z,101
2018-10-15T13:14:43.354Z,101
2018-10-15T13:15:44.091Z,101
2018-10-15T13:16:44.825Z,101
2018-10-15T13:17:45.510Z,101
2018-10-15T13:18:46.198Z,101
2018-10-15T13:19:46.936Z,101
2018-10-15T13:20:47.642Z,101
2018-10-15T13:21:48.355Z,101
2018-10-15T13:22:49.040Z,101
2018-10-15T13:23:49.732Z,112
2018-10-15T13:24:50.464Z,112
2018-10-15T13:25:51.150Z,101
2018-10-15T13:26:51.886Z,101
2018-10-15T13:27:52.573Z,101
2018-10-15T13:28:53.358Z,101
2018-10-15T13:29:54.044Z,101
2018-10-15T13:30:54.729Z,101
2018-10-15T13:31:55.414Z,101
2018-10-15T13:32:56.233Z,101
2018-10-15T13:33:56.877Z,101
2018-10-15T13:34:57.613Z,118
2018-10-15T13:35:58.299Z,129
2018-10-15T13:36:58.991Z,135
2018-10-15T13:37:59.774Z,135
2018-10-15T13:39:00.457Z,118
2018-10-15T13:40:01.201Z,101
2018-10-15T13:41:01.879Z,101
2018-10-15T13:42:02.612Z,101
2018-10-15T13:43:03.299Z,101
2018-10-15T13:44:04.031Z,101
2018-10-15T13:45:04.794Z,101
2018-10-15T13:46:05.448Z,95
2018-10-15T13:47:06.135Z,95
2018-10-15T13:48:06.823Z,95
2018-10-15T13:49:07.553Z,95
2018-10-15T13:50:08.307Z,95
2018-10-15T13:51:09.024Z,95
2018-10-15T13:52:09.759Z,95
2018-10-15T13:53:10.445Z,95
2018-10-15T13:54:11.132Z,95
2018-10-15T13:55:11.916Z,95
2018-10-15T13:56:12.626Z,95
2018-10-15T13:57:13.384Z,95
2018-10-15T13:58:14.116Z,95
2018-10-15T13:59:14.798Z,95
2018-10-15T14:00:15.481Z,95
2018-10-15T14:01:16.233Z,95
2018-10-15T14:02:16.951Z,90
2018-10-15T14:03:17.643Z,90
2018-10-15T14:04:18.328Z,90
2018-10-15T14:05:19.053Z,90
2018-10-15T14:06:19.826Z,95
2018-10-15T14:07:20.520Z,90
2018-10-15T14:08:21.207Z,90
2018-10-15T14:09:21.893Z,90
2018-10-15T14:10:22.579Z,90
2018-10-15T14:11:23.364Z,90
2018-10-15T14:12:24.051Z,90
2018-10-15T14:13:24.785Z,90
2018-10-15T14:14:25.470Z,90
2018-10-15T14:15:26.157Z,90
2018-10-15T14:16:26.843Z,90
2018-10-15T14:17:27.607Z,90
2018-10-15T14:18:28.346Z,90
2018-10-15T14:19:29.031Z,84
2018-10-15T14:20:29.715Z,84
2018-10-15T14:21:30.465Z,84
2018-10-15T14:22:31.184Z,84
2018-10-15T14:23:31.881Z,84
2018-10-15T14:24:32.556Z,84
2018-10-15T14:25:33.262Z,84
2018-10-15T14:26:34.025Z,84
2018-10-15T14:27:34.761Z,84